createdAt,value
2023-07-25T00:02:12.698Z,100.00
2023-07-25T00:04:40.346Z,100.00
2023-07-25T00:07:09.376Z,100.00
2023-07-25T00:09:37.034Z,100.00
2023-07-25T00:12:05.179Z,100.00
2023-07-25T00:14:34.621Z,100.00
2023-07-25T00:17:02.306Z,100.00
2023-07-25T00:19:29.968Z,100.00
2023-07-25T00:21:57.671Z,100.00
2023-07-25T00:24:26.787Z,100.00
2023-07-25T00:26:54.517Z,100.00
2023-07-25T00:29:22.174Z,100.00
2023-07-25T00:31:49.872Z,100.00
2023-07-25T00:34:17.538Z,100.00
2023-07-25T00:36:45.230Z,100.00
2023-07-25T00:39:13.063Z,100.00
2023-07-25T00:41:42.100Z,100.00
2023-07-25T00:44:10.010Z,100.00
2023-07-25T00:46:37.803Z,100.00
2023-07-25T00:49:06.871Z,100.00
2023-07-25T00:51:34.745Z,100.00
2023-07-25T00:54:03.037Z,100.00
2023-07-25T00:56:30.721Z,100.00
2023-07-25T00:58:59.736Z,100.00
2023-07-25T01:01:29.454Z,100.00
2023-07-25T01:03:57.507Z,100.00
2023-07-25T01:06:25.230Z,100.00
2023-07-25T01:08:54.311Z,100.00
2023-07-25T01:11:22.631Z,100.00
2023-07-25T01:13:50.756Z,100.00
2023-07-25T01:16:24.096Z,100.00
2023-07-25T01:18:52.825Z,100.00
2023-07-25T01:21:21.450Z,100.00
2023-07-25T01:23:49.339Z,100.00
2023-07-25T01:26:19.585Z,100.00
2023-07-25T01:28:47.250Z,100.00
2023-07-25T01:31:14.959Z,100.00
2023-07-25T01:33:42.637Z,100.00
2023-07-25T01:36:10.285Z,100.00
2023-07-25T01:38:37.950Z,100.00
2023-07-25T01:41:05.637Z,100.00
2023-07-25T01:43:34.657Z,100.00
2023-07-25T01:46:02.349Z,100.00
2023-07-25T01:48:30.054Z,100.00
2023-07-25T01:50:58.594Z,100.00
2023-07-25T01:53:26.262Z,100.00
2023-07-25T01:55:53.909Z,100.00
2023-07-25T01:58:21.545Z,100.00
2023-07-25T02:00:49.586Z,100.00
2023-07-25T02:03:19.401Z,100.00
2023-07-25T02:05:47.332Z,100.00
2023-07-25T02:08:15.445Z,100.00
2023-07-25T02:10:43.108Z,100.00
2023-07-25T02:13:10.802Z,100.00
2023-07-25T02:15:38.557Z,100.00
2023-07-25T02:18:07.534Z,100.00
2023-07-25T02:20:35.203Z,100.00
2023-07-25T02:23:03.570Z,100.00
2023-07-25T02:25:31.384Z,100.00
2023-07-25T02:27:59.093Z,100.00
2023-07-25T02:30:26.754Z,100.00
2023-07-25T02:32:54.484Z,100.00
2023-07-25T02:35:23.498Z,100.00
2023-07-25T02:37:51.208Z,100.00
2023-07-25T02:40:18.889Z,100.00
2023-07-25T02:42:46.546Z,100.00
2023-07-25T02:45:14.208Z,100.00
2023-07-25T02:47:41.903Z,100.00
2023-07-25T02:50:10.256Z,100.00
2023-07-25T02:52:39.267Z,100.00
2023-07-25T02:55:07.476Z,100.00
2023-07-25T02:57:35.152Z,100.00
2023-07-25T03:00:02.823Z,100.00
2023-07-25T03:02:30.626Z,100.00
2023-07-25T03:04:58.348Z,100.00
2023-07-25T03:07:26.009Z,100.00
2023-07-25T03:09:55.092Z,100.00
2023-07-25T03:12:22.764Z,100.00
2023-07-25T03:14:50.399Z,100.00
2023-07-25T03:17:18.068Z,100.00
2023-07-25T03:19:45.706Z,100.00
2023-07-25T03:22:13.398Z,100.00
2023-07-25T03:24:41.164Z,100.00
2023-07-25T03:27:10.196Z,100.00
2023-07-25T03:29:37.923Z,100.00
2023-07-25T03:32:05.878Z,100.00
2023-07-25T03:34:33.519Z,100.00
2023-07-25T03:37:01.191Z,100.00
2023-07-25T03:39:28.856Z,100.00
2023-07-25T03:41:56.553Z,100.00
2023-07-25T03:44:25.524Z,100.00
2023-07-25T03:46:53.184Z,100.00
2023-07-25T03:49:20.820Z,100.00
2023-07-25T03:51:48.871Z,100.00
2023-07-25T03:54:16.541Z,100.00
2023-07-25T03:56:44.196Z,100.00
2023-07-25T03:59:11.826Z,100.00
2023-07-25T04:01:40.872Z,100.00
2023-07-25T04:04:08.632Z,100.00
2023-07-25T04:06:36.379Z,100.00
2023-07-25T04:09:04.073Z,100.00
2023-07-25T04:11:31.950Z,100.00
2023-07-25T04:13:59.876Z,100.00
2023-07-25T04:16:27.568Z,100.00
2023-07-25T04:18:56.629Z,100.00
2023-07-25T04:21:24.350Z,100.00
2023-07-25T04:23:51.999Z,100.00
2023-07-25T04:26:19.737Z,100.00
2023-07-25T04:28:49.393Z,100.00
2023-07-25T04:31:17.451Z,100.00
2023-07-25T04:33:45.103Z,100.00
2023-07-25T04:36:14.110Z,100.00
2023-07-25T04:38:42.341Z,100.00
2023-07-25T04:41:10.072Z,100.00
2023-07-25T04:43:37.725Z,100.00
2023-07-25T04:46:05.441Z,100.00
2023-07-25T04:48:33.153Z,100.00
2023-07-25T04:51:00.850Z,100.00
2023-07-25T04:53:29.822Z,100.00
2023-07-25T04:55:57.507Z,100.00
2023-07-25T04:58:25.120Z,100.00
2023-07-25T05:00:53.002Z,100.00
2023-07-25T05:03:20.832Z,100.00
2023-07-25T05:05:48.535Z,100.00
2023-07-25T05:08:16.185Z,100.00
2023-07-25T05:10:45.192Z,100.00
2023-07-25T05:13:12.834Z,100.00
2023-07-25T05:15:40.565Z,100.00
2023-07-25T05:18:08.253Z,100.00
2023-07-25T05:20:35.915Z,100.00
2023-07-25T05:23:03.626Z,100.00
2023-07-25T05:25:31.271Z,100.00
2023-07-25T05:28:00.240Z,100.00
2023-07-25T05:30:27.907Z,100.00
2023-07-25T05:32:55.708Z,100.00
2023-07-25T05:35:23.436Z,100.00
2023-07-25T05:37:51.132Z,100.00
2023-07-25T05:40:18.786Z,100.00
2023-07-25T05:42:46.431Z,100.00
2023-07-25T05:45:15.508Z,100.00
2023-07-25T05:47:43.585Z,100.00
2023-07-25T05:50:11.864Z,100.00
2023-07-25T05:52:39.752Z,100.00
2023-07-25T05:55:08.939Z,100.00
2023-07-25T05:57:36.751Z,100.00
2023-07-25T06:00:05.442Z,100.00
2023-07-25T06:02:34.771Z,100.00
2023-07-25T06:05:02.884Z,100.00
2023-07-25T06:07:30.617Z,100.00
2023-07-25T06:09:59.337Z,100.00
2023-07-25T06:12:27.128Z,100.00
2023-07-25T06:14:55.009Z,100.00
2023-07-25T06:17:22.918Z,100.00
2023-07-25T06:19:52.261Z,100.00
2023-07-25T06:22:20.205Z,100.00
2023-07-25T06:24:49.050Z,100.00
2023-07-25T06:27:24.991Z,100.00
2023-07-25T06:29:54.635Z,100.00
2023-07-25T06:32:24.292Z,100.00
2023-07-25T06:34:53.728Z,100.00
2023-07-25T06:37:21.770Z,100.00
2023-07-25T06:39:50.573Z,100.00
2023-07-25T06:42:18.469Z,100.00
2023-07-25T06:44:46.492Z,100.00
2023-07-25T06:47:14.293Z,100.00
2023-07-25T06:49:42.293Z,100.00
2023-07-25T06:52:13.255Z,100.00
2023-07-25T06:54:47.927Z,100.00
2023-07-25T07:03:59.869Z,100.00
2023-07-25T07:06:47.655Z,100.00
2023-07-25T07:09:16.788Z,100.00
2023-07-25T07:11:51.328Z,100.00
2023-07-25T07:14:19.165Z,100.00
2023-07-25T07:20:34.929Z,100.00
2023-07-25T07:23:09.891Z,100.00
2023-07-25T07:25:39.674Z,100.00
2023-07-25T07:28:50.915Z,100.00
2023-07-25T07:31:29.536Z,100.00
2023-07-25T07:34:10.690Z,100.00
2023-07-25T07:36:41.426Z,100.00
2023-07-25T07:39:19.407Z,100.00
2023-07-25T07:41:48.494Z,100.00
2023-07-25T07:44:25.645Z,100.00
2023-07-25T07:46:53.550Z,100.00
2023-07-25T07:49:21.215Z,100.00
2023-07-25T07:52:05.052Z,100.00
2023-07-25T07:54:36.557Z,100.00
2023-07-25T07:57:05.903Z,100.00
2023-07-25T07:59:33.583Z,100.00
2023-07-25T08:02:01.259Z,100.00
2023-07-25T08:04:29.150Z,100.00
2023-07-25T08:06:57.587Z,100.00
2023-07-25T08:09:25.495Z,100.00
2023-07-25T08:11:53.359Z,100.00
2023-07-25T08:14:22.516Z,100.00
2023-07-25T08:16:50.508Z,100.00
2023-07-25T08:19:18.323Z,100.00
2023-07-25T08:21:46.192Z,100.00
2023-07-25T08:24:14.124Z,100.00
2023-07-25T08:26:42.168Z,100.00
2023-07-25T08:29:10.092Z,100.00
2023-07-25T08:31:39.343Z,100.00
2023-07-25T08:34:07.089Z,100.00
2023-07-25T08:36:34.956Z,100.00
2023-07-25T08:39:02.980Z,100.00
2023-07-25T08:41:33.427Z,100.00
2023-07-25T08:44:03.575Z,100.00
2023-07-25T08:46:32.952Z,100.00
2023-07-25T08:49:03.567Z,100.00
2023-07-25T08:51:35.526Z,100.00
2023-07-25T08:54:04.961Z,100.00
2023-07-25T08:56:32.849Z,100.00
2023-07-25T08:59:01.281Z,100.00
2023-07-25T09:01:29.756Z,100.00
2023-07-25T09:03:58.149Z,100.00
2023-07-25T09:06:33.119Z,100.00
2023-07-25T09:09:01.180Z,100.00
2023-07-25T09:11:29.256Z,100.00
2023-07-25T09:13:57.440Z,100.00
2023-07-25T09:16:25.301Z,100.00
2023-07-25T09:18:53.130Z,100.00
2023-07-25T09:21:20.960Z,100.00
2023-07-25T09:23:57.723Z,100.00
2023-07-25T09:26:27.351Z,100.00
2023-07-25T09:28:59.779Z,100.00
2023-07-25T09:31:29.670Z,100.00
2023-07-25T09:33:58.354Z,100.00
2023-07-25T09:36:32.645Z,100.00
2023-07-25T09:39:02.815Z,100.00
2023-07-25T09:41:30.994Z,100.00
2023-07-25T09:44:03.708Z,100.00
2023-07-25T09:46:31.483Z,100.00
2023-07-25T09:48:59.342Z,100.00
2023-07-25T09:51:29.396Z,100.00
2023-07-25T09:53:58.696Z,100.00
2023-07-25T09:56:28.567Z,100.00
2023-07-25T10:01:27.862Z,100.00
2023-07-25T10:03:55.782Z,100.00
2023-07-25T10:06:23.891Z,100.00
2023-07-25T10:08:52.229Z,100.00
2023-07-25T10:11:21.132Z,100.00
2023-07-25T10:13:52.204Z,100.00
2023-07-25T10:16:21.443Z,100.00
2023-07-25T10:18:55.000Z,100.00
2023-07-25T10:21:26.997Z,100.00
2023-07-25T10:23:57.321Z,100.00
2023-07-25T10:26:25.175Z,100.00
2023-07-25T10:28:54.587Z,100.00
2023-07-25T10:31:31.669Z,100.00
2023-07-25T10:34:00.752Z,100.00
2023-07-25T10:36:28.506Z,100.00
2023-07-25T10:39:06.068Z,100.00
2023-07-25T10:41:34.176Z,100.00
2023-07-25T10:44:04.091Z,100.00
2023-07-25T10:46:33.310Z,100.00
2023-07-25T10:49:01.689Z,100.00
2023-07-25T10:51:51.084Z,100.00
2023-07-25T10:54:19.306Z,100.00
2023-07-25T10:57:19.648Z,100.00
2023-07-25T11:00:02.635Z,100.00
2023-07-25T11:02:31.966Z,100.00
2023-07-25T11:05:22.975Z,100.00
2023-07-25T11:07:51.981Z,97.41
2023-07-25T11:10:21.314Z,98.02
2023-07-25T11:12:52.100Z,91.07
2023-07-25T11:15:28.999Z,94.74
2023-07-25T11:18:08.794Z,89.05
2023-07-25T11:20:36.788Z,86.43
2023-07-25T11:23:04.907Z,89.10
2023-07-25T11:25:32.659Z,85.26
2023-07-25T11:28:00.709Z,79.11
2023-07-25T11:30:30.708Z,83.07
2023-07-25T11:32:58.582Z,86.13
2023-07-25T11:35:26.771Z,84.14
2023-07-25T11:38:02.614Z,82.37
2023-07-25T11:40:31.113Z,84.12
2023-07-25T11:42:59.430Z,82.58
2023-07-25T11:45:27.393Z,81.85
2023-07-25T11:47:56.865Z,80.57
2023-07-25T11:50:30.119Z,78.85
2023-07-25T11:53:00.116Z,69.70
2023-07-25T11:55:28.257Z,67.34
2023-07-25T11:57:56.092Z,70.96
2023-07-25T12:00:25.256Z,72.11
2023-07-25T12:02:53.037Z,73.99
2023-07-25T12:05:30.195Z,74.91
2023-07-25T12:08:01.714Z,73.95
2023-07-25T12:10:29.860Z,76.70
2023-07-25T12:12:58.277Z,74.96
2023-07-25T12:15:43.669Z,77.96
2023-07-25T12:18:15.832Z,75.10
2023-07-25T12:20:57.310Z,76.11
2023-07-25T12:23:30.245Z,77.25
2023-07-25T12:25:58.925Z,79.83
2023-07-25T12:28:26.808Z,76.97
2023-07-25T12:30:54.485Z,78.01
2023-07-25T12:33:22.354Z,78.73
2023-07-25T12:35:51.803Z,80.48
2023-07-25T12:38:19.443Z,84.67
2023-07-25T12:40:47.108Z,80.96
2023-07-25T12:43:14.800Z,77.24
2023-07-25T12:45:43.451Z,80.24
2023-07-25T12:48:12.184Z,78.43
2023-07-25T12:50:42.275Z,80.70
2023-07-25T12:53:11.311Z,77.99
2023-07-25T12:55:39.544Z,79.01
2023-07-25T12:58:07.210Z,81.37
2023-07-25T13:00:34.932Z,79.83
2023-07-25T13:03:02.765Z,79.25
2023-07-25T13:05:30.462Z,79.56
2023-07-25T13:07:59.019Z,77.81
2023-07-25T13:10:29.980Z,75.47
2023-07-25T13:12:57.868Z,74.90
2023-07-25T13:15:26.044Z,74.53
2023-07-25T13:17:53.802Z,75.31
2023-07-25T13:20:22.483Z,80.98
2023-07-25T13:22:50.183Z,74.75
2023-07-25T13:25:17.882Z,75.18
2023-07-25T13:27:46.904Z,74.21
2023-07-25T13:30:14.591Z,75.94
2023-07-25T13:32:42.545Z,72.17
2023-07-25T13:35:10.844Z,76.54
2023-07-25T13:37:38.553Z,73.00
2023-07-25T13:40:07.547Z,69.03
2023-07-25T13:42:35.824Z,73.78
2023-07-25T13:45:05.614Z,76.14
2023-07-25T13:47:33.440Z,75.18
2023-07-25T13:50:01.851Z,71.50
2023-07-25T13:52:29.627Z,72.77
2023-07-25T13:54:57.385Z,72.94
2023-07-25T13:57:31.238Z,67.30
2023-07-25T14:00:00.639Z,66.18
2023-07-25T14:02:29.723Z,67.09
2023-07-25T14:04:57.456Z,65.61
2023-07-25T14:07:25.247Z,66.60
2023-07-25T14:09:52.902Z,69.37
2023-07-25T14:12:20.639Z,67.74
2023-07-25T14:14:48.330Z,66.67
2023-07-25T14:17:16.050Z,60.11
2023-07-25T14:19:46.197Z,64.66
2023-07-25T14:22:13.862Z,64.12
2023-07-25T14:24:41.529Z,62.23
2023-07-25T14:27:09.192Z,63.76
2023-07-25T14:29:36.964Z,61.28
2023-07-25T14:32:04.946Z,59.84
2023-07-25T14:34:32.639Z,60.73
2023-07-25T14:37:01.717Z,60.92
2023-07-25T14:39:29.540Z,64.21
2023-07-25T14:41:57.209Z,61.22
2023-07-25T14:44:24.929Z,61.30
2023-07-25T14:46:52.611Z,62.34
2023-07-25T14:49:20.304Z,62.22
2023-07-25T14:51:48.003Z,60.69
2023-07-25T14:54:17.485Z,59.03
2023-07-25T14:56:45.172Z,60.54
2023-07-25T14:59:12.859Z,60.67
2023-07-25T15:01:40.628Z,56.44
2023-07-25T15:04:08.302Z,58.29
2023-07-25T15:06:35.992Z,60.23
2023-07-25T15:09:03.806Z,57.87
2023-07-25T15:11:32.895Z,60.22
2023-07-25T15:14:00.813Z,56.64
2023-07-25T15:16:28.783Z,59.26
2023-07-25T15:18:57.049Z,59.99
2023-07-25T15:21:24.945Z,56.95
2023-07-25T15:23:52.667Z,58.90
2023-07-25T15:26:20.486Z,55.59
2023-07-25T15:28:49.809Z,58.10
2023-07-25T15:31:17.753Z,57.54
2023-07-25T15:33:45.489Z,56.99
2023-07-25T15:36:13.334Z,56.36
2023-07-25T15:38:41.002Z,56.37
2023-07-25T15:41:08.888Z,57.38
2023-07-25T15:43:36.692Z,57.06
2023-07-25T15:46:05.761Z,57.91
2023-07-25T15:48:33.454Z,55.75
2023-07-25T15:51:01.103Z,57.57
2023-07-25T15:53:28.802Z,58.46
2023-07-25T15:55:56.461Z,62.63
2023-07-25T15:58:24.090Z,66.68
2023-07-25T16:00:51.822Z,71.87
2023-07-25T16:03:20.897Z,74.21
2023-07-25T16:05:48.658Z,74.80
2023-07-25T16:08:16.374Z,74.89
2023-07-25T16:10:46.551Z,75.88
2023-07-25T16:13:15.634Z,79.45
2023-07-25T16:15:46.193Z,78.93
2023-07-25T16:18:13.964Z,79.18
2023-07-25T16:20:44.086Z,79.68
2023-07-25T16:23:11.769Z,79.35
2023-07-25T16:25:39.464Z,78.53
2023-07-25T16:28:07.197Z,77.91
2023-07-25T16:30:34.964Z,80.04
2023-07-25T16:33:02.735Z,80.49
2023-07-25T16:35:30.492Z,80.48
2023-07-25T16:38:01.003Z,81.84
2023-07-25T16:40:29.933Z,81.25
2023-07-25T16:42:57.633Z,80.49
2023-07-25T16:45:25.462Z,80.41
2023-07-25T16:47:53.982Z,80.92
2023-07-25T16:50:21.769Z,81.52
2023-07-25T16:52:49.493Z,79.90
2023-07-25T16:55:18.528Z,80.46
2023-07-25T16:57:47.340Z,82.52
2023-07-25T17:00:15.554Z,80.58
2023-07-25T17:02:43.286Z,79.38
2023-07-25T17:05:13.514Z,81.55
2023-07-25T17:07:41.264Z,82.84
2023-07-25T17:10:09.729Z,82.98
2023-07-25T17:12:38.745Z,83.36
2023-07-25T17:15:07.054Z,85.56
2023-07-25T17:17:34.702Z,85.40
2023-07-25T17:20:02.917Z,84.10
2023-07-25T17:22:30.890Z,85.23
2023-07-25T17:24:58.737Z,84.55
2023-07-25T17:27:26.411Z,87.21
2023-07-25T17:29:55.657Z,86.98
2023-07-25T17:32:23.437Z,85.44
2023-07-25T17:34:51.167Z,86.87
2023-07-25T17:37:18.916Z,87.13
2023-07-25T17:39:46.625Z,86.09
2023-07-25T17:42:14.320Z,81.85
2023-07-25T17:44:42.130Z,79.91
2023-07-25T17:47:11.151Z,77.58
2023-07-25T17:49:38.868Z,76.44
2023-07-25T17:52:07.513Z,76.77
2023-07-25T17:54:35.346Z,75.63
2023-07-25T17:57:02.987Z,75.79
2023-07-25T17:59:30.643Z,74.75
2023-07-25T18:01:58.269Z,73.81
2023-07-25T18:04:27.343Z,76.04
2023-07-25T18:06:54.982Z,75.75
2023-07-25T18:09:22.630Z,76.51
2023-07-25T18:11:50.303Z,75.85
2023-07-25T18:14:18.004Z,77.08
2023-07-25T18:16:45.637Z,76.81
2023-07-25T18:19:13.262Z,76.20
2023-07-25T18:21:42.202Z,77.88
2023-07-25T18:24:09.876Z,79.03
2023-07-25T18:26:39.054Z,79.38
2023-07-25T18:29:06.908Z,77.80
2023-07-25T18:31:34.733Z,78.42
2023-07-25T18:34:02.893Z,78.04
2023-07-25T18:36:30.525Z,78.96
2023-07-25T18:39:01.057Z,78.36
2023-07-25T18:41:28.901Z,79.32
2023-07-25T18:43:56.577Z,80.14
2023-07-25T18:46:24.371Z,79.95
2023-07-25T18:48:52.077Z,80.46
2023-07-25T18:51:19.721Z,80.20
2023-07-25T18:53:47.581Z,82.04
2023-07-25T18:56:16.598Z,84.65
2023-07-25T18:58:44.262Z,86.49
2023-07-25T19:01:12.029Z,86.21
2023-07-25T19:03:39.733Z,87.82
2023-07-25T19:06:07.635Z,88.31
2023-07-25T19:08:36.260Z,90.08
2023-07-25T19:11:03.920Z,92.42
2023-07-25T19:13:33.278Z,94.74
2023-07-25T19:16:00.925Z,98.43
2023-07-25T19:18:28.714Z,98.25
2023-07-25T19:20:56.399Z,98.32
2023-07-25T19:23:27.361Z,98.23
2023-07-25T19:25:58.925Z,97.41
2023-07-25T19:28:26.829Z,99.00
2023-07-25T19:30:56.438Z,100.00
2023-07-25T19:33:24.229Z,98.72
2023-07-25T19:35:53.103Z,98.96
2023-07-25T19:38:20.763Z,99.82
2023-07-25T19:40:48.406Z,100.00
2023-07-25T19:43:16.109Z,100.00
2023-07-25T19:45:45.047Z,100.00
2023-07-25T19:48:16.100Z,100.00
2023-07-25T19:50:46.723Z,100.00
2023-07-25T19:53:14.876Z,100.00
2023-07-25T19:55:42.878Z,100.00
2023-07-25T19:58:10.529Z,100.00
2023-07-25T20:00:38.566Z,100.00
2023-07-25T20:03:06.493Z,100.00
2023-07-25T20:05:35.644Z,100.00
2023-07-25T20:08:03.307Z,100.00
2023-07-25T20:10:31.093Z,100.00
2023-07-25T20:12:58.768Z,100.00
2023-07-25T20:15:26.477Z,100.00
2023-07-25T20:17:54.203Z,100.00
2023-07-25T20:20:21.886Z,100.00
2023-07-25T20:22:52.585Z,100.00
2023-07-25T20:25:20.535Z,100.00
2023-07-25T20:27:48.448Z,100.00
2023-07-25T20:30:16.180Z,100.00
2023-07-25T20:32:44.103Z,100.00
2023-07-25T20:38:30.601Z,100.00
2023-07-25T20:41:07.065Z,100.00
2023-07-25T20:43:37.748Z,100.00
2023-07-25T20:46:09.005Z,100.00
2023-07-25T20:48:37.231Z,100.00
2023-07-25T20:51:08.245Z,100.00
2023-07-25T20:53:37.532Z,100.00
2023-07-25T20:56:18.668Z,100.00
2023-07-25T20:58:48.532Z,100.00
2023-07-25T21:01:18.466Z,100.00
2023-07-25T21:03:46.699Z,100.00
2023-07-25T21:06:14.751Z,100.00
2023-07-25T21:08:42.833Z,100.00
2023-07-25T21:12:01.330Z,100.00
2023-07-25T21:14:34.890Z,100.00
2023-07-25T21:17:08.994Z,100.00
2023-07-25T21:19:36.967Z,100.00
2023-07-25T21:22:05.095Z,100.00
2023-07-25T21:24:33.622Z,100.00
2023-07-25T21:27:03.490Z,100.00
2023-07-25T21:29:35.482Z,100.00
2023-07-25T21:32:11.647Z,100.00
2023-07-25T21:35:17.015Z,100.00
2023-07-25T21:37:45.043Z,100.00
2023-07-25T21:40:13.840Z,100.00
2023-07-25T21:43:01.333Z,100.00
2023-07-25T21:45:30.774Z,100.00
2023-07-25T21:47:58.831Z,100.00
2023-07-25T21:50:26.957Z,100.00
2023-07-25T21:52:54.960Z,100.00
2023-07-25T21:55:23.021Z,100.00
2023-07-25T21:57:51.089Z,100.00
2023-07-25T22:00:19.167Z,100.00
2023-07-25T22:02:48.991Z,100.00
2023-07-25T22:05:17.192Z,100.00
2023-07-25T22:07:45.493Z,100.00
2023-07-25T22:10:14.431Z,100.00
2023-07-25T22:12:43.837Z,100.00
2023-07-25T22:15:29.071Z,100.00
2023-07-25T22:17:58.401Z,100.00
2023-07-25T22:20:31.964Z,100.00
2023-07-25T22:23:06.444Z,100.00
2023-07-25T22:25:34.434Z,100.00
2023-07-25T22:28:02.471Z,100.00
2023-07-25T22:30:30.627Z,100.00
2023-07-25T22:33:12.093Z,100.00
2023-07-25T22:36:03.189Z,100.00
2023-07-25T22:38:38.675Z,100.00
2023-07-25T22:41:09.628Z,100.00
2023-07-25T22:47:28.004Z,100.00
2023-07-25T22:49:57.461Z,100.00
2023-07-25T22:52:31.189Z,100.00
2023-07-25T22:55:02.389Z,100.00
2023-07-25T22:57:30.327Z,100.00
2023-07-25T22:59:58.322Z,100.00
2023-07-25T23:02:26.512Z,100.00
2023-07-25T23:04:54.731Z,100.00
2023-07-25T23:07:24.405Z,100.00
2023-07-25T23:09:54.422Z,100.00
2023-07-25T23:12:23.443Z,100.00
2023-07-25T23:14:51.795Z,100.00
2023-07-25T23:17:19.778Z,100.00
2023-07-25T23:19:48.150Z,100.00
2023-07-25T23:22:16.393Z,100.00
2023-07-25T23:24:46.053Z,100.00
2023-07-25T23:27:22.546Z,100.00
2023-07-25T23:29:52.666Z,100.00
2023-07-25T23:32:20.962Z,100.00
2023-07-25T23:35:08.564Z,100.00
2023-07-25T23:37:36.782Z,100.00
2023-07-25T23:40:09.229Z,100.00
2023-07-25T23:42:37.364Z,100.00
2023-07-25T23:45:07.284Z,100.00
2023-07-25T23:47:36.772Z,100.00
2023-07-25T23:50:06.560Z,100.00
2023-07-25T23:52:40.927Z,100.00
2023-07-25T23:55:11.352Z,100.00
2023-07-25T23:57:39.582Z,100.00
